sensor_id;sensor_type;location;lat;lon;timestamp;temperature;humidity
34877;DHT22;21086;44.780;17.194;2023-01-15T00:02:11;4.00;99.90
34877;DHT22;21086;44.780;17.194;2023-01-15T00:04:42;4.00;99.90
34877;DHT22;21086;44.780;17.194;2023-01-15T00:07:24;3.80;99.90
34877;DHT22;21086;44.780;17.194;2023-01-15T00:10:03;3.70;99.90
34877;DHT22;21086;44.780;17.194;2023-01-15T00:12:30;3.60;99.90
34877;DHT22;21086;44.780;17.194;2023-01-15T00:14:57;3.60;99.90
34877;DHT22;21086;44.780;17.194;2023-01-15T00:17:24;3.60;99.90
34877;DHT22;21086;44.780;17.194;2023-01-15T00:19:51;3.60;99.90
34877;DHT22;21086;44.780;17.194;2023-01-15T00:22:18;3.50;99.90
34877;DHT22;21086;44.780;17.194;2023-01-15T00:24:45;3.50;99.90
34877;DHT22;21086;44.780;17.194;2023-01-15T00:27:31;3.70;99.90
34877;DHT22;21086;44.780;17.194;2023-01-15T00:30:07;3.60;99.90
34877;DHT22;21086;44.780;17.194;2023-01-15T00:32:35;3.60;99.90
34877;DHT22;21086;44.780;17.194;2023-01-15T00:35:02;3.50;99.90
34877;DHT22;21086;44.780;17.194;2023-01-15T00:37:29;3.50;99.90
34877;DHT22;21086;44.780;17.194;2023-01-15T00:39:56;3.60;99.90
34877;DHT22;21086;44.780;17.194;2023-01-15T00:42:23;3.60;99.90
34877;DHT22;21086;44.780;17.194;2023-01-15T00:44:50;3.80;99.90
34877;DHT22;21086;44.780;17.194;2023-01-15T00:47:17;3.70;99.90
34877;DHT22;21086;44.780;17.194;2023-01-15T00:49:44;3.80;99.90
34877;DHT22;21086;44.780;17.194;2023-01-15T00:52:11;3.70;99.90
34877;DHT22;21086;44.780;17.194;2023-01-15T00:54:38;3.60;99.90
34877;DHT22;21086;44.780;17.194;2023-01-15T00:57:05;3.70;99.90
34877;DHT22;21086;44.780;17.194;2023-01-15T00:59:32;3.80;99.90
34877;DHT22;21086;44.780;17.194;2023-01-15T01:01:59;3.60;99.90
34877;DHT22;21086;44.780;17.194;2023-01-15T01:04:26;3.70;99.90
34877;DHT22;21086;44.780;17.194;2023-01-15T01:06:53;3.60;99.90
34877;DHT22;21086;44.780;17.194;2023-01-15T01:09:20;3.60;99.90
34877;DHT22;21086;44.780;17.194;2023-01-15T01:11:48;3.60;99.90
34877;DHT22;21086;44.780;17.194;2023-01-15T01:14:15;3.60;99.90
34877;DHT22;21086;44.780;17.194;2023-01-15T01:16:43;3.50;99.90
34877;DHT22;21086;44.780;17.194;2023-01-15T01:19:18;3.60;99.90
34877;DHT22;21086;44.780;17.194;2023-01-15T01:21:46;3.50;99.90
34877;DHT22;21086;44.780;17.194;2023-01-15T01:24:19;3.40;99.90
34877;DHT22;21086;44.780;17.194;2023-01-15T01:26:46;3.50;99.90
34877;DHT22;21086;44.780;17.194;2023-01-15T01:29:19;3.60;99.90
34877;DHT22;21086;44.780;17.194;2023-01-15T01:31:47;3.40;99.90
34877;DHT22;21086;44.780;17.194;2023-01-15T01:34:14;3.30;99.90
34877;DHT22;21086;44.780;17.194;2023-01-15T01:36:42;3.30;99.90
34877;DHT22;21086;44.780;17.194;2023-01-15T01:39:16;3.30;99.90
34877;DHT22;21086;44.780;17.194;2023-01-15T01:41:44;3.40;99.90
34877;DHT22;21086;44.780;17.194;2023-01-15T01:47:04;3.30;99.90
34877;DHT22;21086;44.780;17.194;2023-01-15T01:49:32;3.40;99.90
34877;DHT22;21086;44.780;17.194;2023-01-15T01:52:11;3.40;99.90
34877;DHT22;21086;44.780;17.194;2023-01-15T01:54:44;3.30;99.90
34877;DHT22;21086;44.780;17.194;2023-01-15T01:57:12;3.30;99.90
34877;DHT22;21086;44.780;17.194;2023-01-15T01:59:40;3.30;99.90
34877;DHT22;21086;44.780;17.194;2023-01-15T02:02:07;3.20;99.90
34877;DHT22;21086;44.780;17.194;2023-01-15T02:04:35;3.20;99.90
34877;DHT22;21086;44.780;17.194;2023-01-15T02:07:02;3.20;99.90
34877;DHT22;21086;44.780;17.194;2023-01-15T02:09:30;3.20;99.90
34877;DHT22;21086;44.780;17.194;2023-01-15T02:12:02;3.10;99.90
34877;DHT22;21086;44.780;17.194;2023-01-15T02:17:16;3.20;99.90
34877;DHT22;21086;44.780;17.194;2023-01-15T02:28:37;3.40;99.90
34877;DHT22;21086;44.780;17.194;2023-01-15T02:31:20;3.40;99.90
34877;DHT22;21086;44.780;17.194;2023-01-15T02:39:19;3.30;99.90
34877;DHT22;21086;44.780;17.194;2023-01-15T02:41:50;3.30;99.90
34877;DHT22;21086;44.780;17.194;2023-01-15T02:44:20;3.30;99.90
34877;DHT22;21086;44.780;17.194;2023-01-15T02:46:48;3.40;99.90
34877;DHT22;21086;44.780;17.194;2023-01-15T02:49:18;3.40;99.90
34877;DHT22;21086;44.780;17.194;2023-01-15T02:51:55;3.40;99.90
34877;DHT22;21086;44.780;17.194;2023-01-15T02:54:27;3.40;99.90
34877;DHT22;21086;44.780;17.194;2023-01-15T02:56:57;3.40;99.90
34877;DHT22;21086;44.780;17.194;2023-01-15T02:59:47;3.40;99.90
34877;DHT22;21086;44.780;17.194;2023-01-15T03:02:25;3.50;99.90
34877;DHT22;21086;44.780;17.194;2023-01-15T03:05:06;3.40;99.90
34877;DHT22;21086;44.780;17.194;2023-01-15T03:10:05;3.20;99.90
34877;DHT22;21086;44.780;17.194;2023-01-15T03:12:43;3.10;99.90
34877;DHT22;21086;44.780;17.194;2023-01-15T03:18:26;2.90;99.90
34877;DHT22;21086;44.780;17.194;2023-01-15T03:20:58;2.90;99.90
34877;DHT22;21086;44.780;17.194;2023-01-15T03:23:28;2.90;99.90
34877;DHT22;21086;44.780;17.194;2023-01-15T03:25:56;3.50;99.90
34877;DHT22;21086;44.780;17.194;2023-01-15T03:28:29;2.60;99.90
34877;DHT22;21086;44.780;17.194;2023-01-15T03:30:58;2.60;99.90
34877;DHT22;21086;44.780;17.194;2023-01-15T03:33:25;2.60;99.90
34877;DHT22;21086;44.780;17.194;2023-01-15T03:35:57;2.70;99.90
34877;DHT22;21086;44.780;17.194;2023-01-15T03:38:27;2.60;99.90
34877;DHT22;21086;44.780;17.194;2023-01-15T03:49:54;2.60;99.90
34877;DHT22;21086;44.780;17.194;2023-01-15T03:52:43;2.70;99.90
34877;DHT22;21086;44.780;17.194;2023-01-15T03:55:24;2.70;99.90
34877;DHT22;21086;44.780;17.194;2023-01-15T03:58:01;2.70;99.90
34877;DHT22;21086;44.780;17.194;2023-01-15T04:00:36;2.80;99.90
34877;DHT22;21086;44.780;17.194;2023-01-15T04:03:06;2.80;99.90
34877;DHT22;21086;44.780;17.194;2023-01-15T04:05:36;2.70;99.90
34877;DHT22;21086;44.780;17.194;2023-01-15T04:08:03;2.70;99.90
34877;DHT22;21086;44.780;17.194;2023-01-15T04:10:31;2.80;99.90
34877;DHT22;21086;44.780;17.194;2023-01-15T04:12:58;2.90;99.90
34877;DHT22;21086;44.780;17.194;2023-01-15T04:15:25;2.80;99.90
34877;DHT22;21086;44.780;17.194;2023-01-15T04:17:52;2.90;99.90
34877;DHT22;21086;44.780;17.194;2023-01-15T04:20:19;2.80;99.90
34877;DHT22;21086;44.780;17.194;2023-01-15T04:22:46;2.80;99.90
34877;DHT22;21086;44.780;17.194;2023-01-15T04:25:13;2.80;99.90
34877;DHT22;21086;44.780;17.194;2023-01-15T04:27:40;2.80;99.90
34877;DHT22;21086;44.780;17.194;2023-01-15T04:30:08;2.80;99.90
34877;DHT22;21086;44.780;17.194;2023-01-15T04:32:35;2.80;99.90
34877;DHT22;21086;44.780;17.194;2023-01-15T04:35:02;2.70;99.90
34877;DHT22;21086;44.780;17.194;2023-01-15T04:37:29;2.70;99.90
34877;DHT22;21086;44.780;17.194;2023-01-15T04:39:56;2.80;99.90
34877;DHT22;21086;44.780;17.194;2023-01-15T04:42:23;2.70;99.90
34877;DHT22;21086;44.780;17.194;2023-01-15T04:45:09;2.70;99.90
34877;DHT22;21086;44.780;17.194;2023-01-15T04:47:36;2.70;99.90
34877;DHT22;21086;44.780;17.194;2023-01-15T04:50:03;2.60;99.90
34877;DHT22;21086;44.780;17.194;2023-01-15T04:52:29;2.60;99.90
34877;DHT22;21086;44.780;17.194;2023-01-15T04:54:56;2.80;99.90
34877;DHT22;21086;44.780;17.194;2023-01-15T04:57:23;2.60;99.90
34877;DHT22;21086;44.780;17.194;2023-01-15T04:59:50;2.70;99.90
34877;DHT22;21086;44.780;17.194;2023-01-15T05:02:17;2.80;99.90
34877;DHT22;21086;44.780;17.194;2023-01-15T05:04:45;2.80;99.90
34877;DHT22;21086;44.780;17.194;2023-01-15T05:07:11;2.50;99.90
34877;DHT22;21086;44.780;17.194;2023-01-15T05:09:39;2.60;99.90
34877;DHT22;21086;44.780;17.194;2023-01-15T05:12:08;2.70;99.90
34877;DHT22;21086;44.780;17.194;2023-01-15T05:14:35;2.60;99.90
34877;DHT22;21086;44.780;17.194;2023-01-15T05:17:01;2.60;99.90
34877;DHT22;21086;44.780;17.194;2023-01-15T05:19:29;2.70;99.90
34877;DHT22;21086;44.780;17.194;2023-01-15T05:21:56;2.70;99.90
34877;DHT22;21086;44.780;17.194;2023-01-15T05:24:23;2.80;99.90
34877;DHT22;21086;44.780;17.194;2023-01-15T05:26:50;2.80;99.90
34877;DHT22;21086;44.780;17.194;2023-01-15T05:29:17;2.90;99.90
34877;DHT22;21086;44.780;17.194;2023-01-15T05:31:44;2.90;99.90
34877;DHT22;21086;44.780;17.194;2023-01-15T05:34:11;2.70;99.90
34877;DHT22;21086;44.780;17.194;2023-01-15T05:36:38;2.70;99.90
34877;DHT22;21086;44.780;17.194;2023-01-15T05:39:06;2.50;99.90
34877;DHT22;21086;44.780;17.194;2023-01-15T05:41:33;2.70;99.90
34877;DHT22;21086;44.780;17.194;2023-01-15T05:46:47;2.50;99.90
34877;DHT22;21086;44.780;17.194;2023-01-15T05:49:18;2.60;99.90
34877;DHT22;21086;44.780;17.194;2023-01-15T05:51:46;2.40;99.90
34877;DHT22;21086;44.780;17.194;2023-01-15T05:54:16;2.40;99.90
34877;DHT22;21086;44.780;17.194;2023-01-15T05:56:44;3.00;99.90
34877;DHT22;21086;44.780;17.194;2023-01-15T05:59:12;2.60;99.90
34877;DHT22;21086;44.780;17.194;2023-01-15T06:01:39;2.50;99.90
34877;DHT22;21086;44.780;17.194;2023-01-15T06:04:06;2.50;99.90
34877;DHT22;21086;44.780;17.194;2023-01-15T06:06:34;2.30;99.90
34877;DHT22;21086;44.780;17.194;2023-01-15T06:09:03;2.30;99.90
34877;DHT22;21086;44.780;17.194;2023-01-15T06:11:30;2.30;99.90
34877;DHT22;21086;44.780;17.194;2023-01-15T06:13:58;2.90;99.90
34877;DHT22;21086;44.780;17.194;2023-01-15T06:16:25;2.20;99.90
34877;DHT22;21086;44.780;17.194;2023-01-15T06:18:52;2.20;99.90
34877;DHT22;21086;44.780;17.194;2023-01-15T06:21:19;2.80;99.90
34877;DHT22;21086;44.780;17.194;2023-01-15T06:23:46;2.00;99.90
34877;DHT22;21086;44.780;17.194;2023-01-15T06:26:16;2.50;99.90
34877;DHT22;21086;44.780;17.194;2023-01-15T06:28:45;1.90;99.90
34877;DHT22;21086;44.780;17.194;2023-01-15T06:31:15;1.80;99.90
34877;DHT22;21086;44.780;17.194;2023-01-15T06:33:42;2.00;99.90
34877;DHT22;21086;44.780;17.194;2023-01-15T06:36:15;2.10;99.90
34877;DHT22;21086;44.780;17.194;2023-01-15T06:38:43;2.40;99.90
34877;DHT22;21086;44.780;17.194;2023-01-15T06:41:19;2.40;99.90
34877;DHT22;21086;44.780;17.194;2023-01-15T06:44:06;2.50;99.90
34877;DHT22;21086;44.780;17.194;2023-01-15T06:46:54;2.50;99.90
34877;DHT22;21086;44.780;17.194;2023-01-15T06:49:40;2.60;99.90
34877;DHT22;21086;44.780;17.194;2023-01-15T06:52:07;2.70;99.90
34877;DHT22;21086;44.780;17.194;2023-01-15T06:54:34;2.60;99.90
34877;DHT22;21086;44.780;17.194;2023-01-15T06:57:02;2.70;99.90
34877;DHT22;21086;44.780;17.194;2023-01-15T06:59:28;2.80;99.90
34877;DHT22;21086;44.780;17.194;2023-01-15T07:01:56;2.80;99.90
34877;DHT22;21086;44.780;17.194;2023-01-15T07:04:26;2.80;99.90
34877;DHT22;21086;44.780;17.194;2023-01-15T07:06:53;2.90;99.90
34877;DHT22;21086;44.780;17.194;2023-01-15T07:09:21;3.10;99.90
34877;DHT22;21086;44.780;17.194;2023-01-15T07:11:48;3.30;99.90
34877;DHT22;21086;44.780;17.194;2023-01-15T07:14:20;3.20;99.90
34877;DHT22;21086;44.780;17.194;2023-01-15T07:16:48;3.20;99.90
34877;DHT22;21086;44.780;17.194;2023-01-15T07:19:18;3.10;99.90
34877;DHT22;21086;44.780;17.194;2023-01-15T07:21:46;3.30;99.90
34877;DHT22;21086;44.780;17.194;2023-01-15T07:24:15;3.30;99.90
34877;DHT22;21086;44.780;17.194;2023-01-15T07:26:43;3.50;99.90
34877;DHT22;21086;44.780;17.194;2023-01-15T07:29:11;3.60;99.90
34877;DHT22;21086;44.780;17.194;2023-01-15T07:31:39;3.70;99.90
34877;DHT22;21086;44.780;17.194;2023-01-15T07:34:06;3.90;99.90
34877;DHT22;21086;44.780;17.194;2023-01-15T07:36:33;4.00;99.90
34877;DHT22;21086;44.780;17.194;2023-01-15T07:39:03;4.10;99.90
34877;DHT22;21086;44.780;17.194;2023-01-15T07:41:30;4.30;99.90
34877;DHT22;21086;44.780;17.194;2023-01-15T07:44:15;4.40;99.90
34877;DHT22;21086;44.780;17.194;2023-01-15T07:47:01;4.40;99.90
34877;DHT22;21086;44.780;17.194;2023-01-15T07:49:48;4.60;99.90
34877;DHT22;21086;44.780;17.194;2023-01-15T07:52:18;4.60;99.90
34877;DHT22;21086;44.780;17.194;2023-01-15T07:54:46;4.80;99.90
34877;DHT22;21086;44.780;17.194;2023-01-15T07:57:17;4.90;99.90
34877;DHT22;21086;44.780;17.194;2023-01-15T07:59:44;5.10;99.90
34877;DHT22;21086;44.780;17.194;2023-01-15T08:02:11;3.40;99.90
34877;DHT22;21086;44.780;17.194;2023-01-15T08:04:38;5.30;99.90
34877;DHT22;21086;44.780;17.194;2023-01-15T08:07:06;5.50;99.90
34877;DHT22;21086;44.780;17.194;2023-01-15T08:09:34;5.60;99.90
34877;DHT22;21086;44.780;17.194;2023-01-15T08:12:03;5.80;99.90
34877;DHT22;21086;44.780;17.194;2023-01-15T08:14:49;5.50;99.90
34877;DHT22;21086;44.780;17.194;2023-01-15T08:17:36;6.40;99.90
34877;DHT22;21086;44.780;17.194;2023-01-15T08:20:05;6.40;99.90
34877;DHT22;21086;44.780;17.194;2023-01-15T08:22:32;6.40;99.90
34877;DHT22;21086;44.780;17.194;2023-01-15T08:24:59;6.70;99.90
34877;DHT22;21086;44.780;17.194;2023-01-15T08:27:26;6.90;99.90
34877;DHT22;21086;44.780;17.194;2023-01-15T08:29:54;7.30;99.90
34877;DHT22;21086;44.780;17.194;2023-01-15T08:32:23;7.60;99.90
34877;DHT22;21086;44.780;17.194;2023-01-15T08:34:50;7.80;99.90
34877;DHT22;21086;44.780;17.194;2023-01-15T08:37:17;8.00;99.90
34877;DHT22;21086;44.780;17.194;2023-01-15T08:39:45;8.30;99.90
34877;DHT22;21086;44.780;17.194;2023-01-15T08:42:12;8.40;99.90
34877;DHT22;21086;44.780;17.194;2023-01-15T08:44:39;8.70;99.90
34877;DHT22;21086;44.780;17.194;2023-01-15T08:47:06;9.00;99.90
34877;DHT22;21086;44.780;17.194;2023-01-15T08:49:33;9.20;99.90
34877;DHT22;21086;44.780;17.194;2023-01-15T08:52:00;9.40;99.90
34877;DHT22;21086;44.780;17.194;2023-01-15T08:54:27;9.50;99.90
34877;DHT22;21086;44.780;17.194;2023-01-15T08:56:55;9.80;99.90
34877;DHT22;21086;44.780;17.194;2023-01-15T08:59:22;10.00;99.90
34877;DHT22;21086;44.780;17.194;2023-01-15T09:01:49;10.20;99.90
34877;DHT22;21086;44.780;17.194;2023-01-15T09:04:18;10.30;99.90
34877;DHT22;21086;44.780;17.194;2023-01-15T09:09:32;10.20;99.90
34877;DHT22;21086;44.780;17.194;2023-01-15T09:12:00;9.10;99.90
34877;DHT22;21086;44.780;17.194;2023-01-15T09:14:28;10.40;99.90
34877;DHT22;21086;44.780;17.194;2023-01-15T09:17:15;10.60;99.90
34877;DHT22;21086;44.780;17.194;2023-01-15T09:19:42;10.90;99.90
34877;DHT22;21086;44.780;17.194;2023-01-15T09:22:09;11.20;99.90
34877;DHT22;21086;44.780;17.194;2023-01-15T09:24:36;11.50;99.90
34877;DHT22;21086;44.780;17.194;2023-01-15T09:27:03;12.00;99.90
34877;DHT22;21086;44.780;17.194;2023-01-15T09:29:30;12.40;99.90
34877;DHT22;21086;44.780;17.194;2023-01-15T09:31:57;12.50;99.90
34877;DHT22;21086;44.780;17.194;2023-01-15T09:34:23;12.70;99.90
34877;DHT22;21086;44.780;17.194;2023-01-15T09:36:51;13.00;99.90
34877;DHT22;21086;44.780;17.194;2023-01-15T09:39:18;13.40;99.90
34877;DHT22;21086;44.780;17.194;2023-01-15T09:47:26;14.10;99.90
34877;DHT22;21086;44.780;17.194;2023-01-15T09:53:04;14.40;99.90
34877;DHT22;21086;44.780;17.194;2023-01-15T09:55:44;14.50;99.90
34877;DHT22;21086;44.780;17.194;2023-01-15T09:58:14;14.60;99.90
34877;DHT22;21086;44.780;17.194;2023-01-15T10:00:49;14.80;99.90
34877;DHT22;21086;44.780;17.194;2023-01-15T10:03:44;15.30;99.90
34877;DHT22;21086;44.780;17.194;2023-01-15T10:06:24;15.70;99.90
34877;DHT22;21086;44.780;17.194;2023-01-15T10:09:21;16.30;99.90
34877;DHT22;21086;44.780;17.194;2023-01-15T10:11:58;16.60;99.90
34877;DHT22;21086;44.780;17.194;2023-01-15T10:14:49;17.10;99.90
34877;DHT22;21086;44.780;17.194;2023-01-15T10:17:25;17.50;99.90
34877;DHT22;21086;44.780;17.194;2023-01-15T10:19:53;17.90;99.90
34877;DHT22;21086;44.780;17.194;2023-01-15T10:22:43;18.40;99.90
34877;DHT22;21086;44.780;17.194;2023-01-15T10:25:16;18.80;99.90
34877;DHT22;21086;44.780;17.194;2023-01-15T10:27:50;19.30;99.90
34877;DHT22;21086;44.780;17.194;2023-01-15T10:30:27;19.80;99.90
34877;DHT22;21086;44.780;17.194;2023-01-15T10:33:03;20.30;99.90
34877;DHT22;21086;44.780;17.194;2023-01-15T10:35:57;20.90;99.90
34877;DHT22;21086;44.780;17.194;2023-01-15T10:38:32;21.50;99.90
34877;DHT22;21086;44.780;17.194;2023-01-15T10:46:55;22.30;99.90
34877;DHT22;21086;44.780;17.194;2023-01-15T10:49:28;22.80;99.90
34877;DHT22;21086;44.780;17.194;2023-01-15T10:52:16;23.60;99.90
34877;DHT22;21086;44.780;17.194;2023-01-15T10:54:54;24.30;99.90
34877;DHT22;21086;44.780;17.194;2023-01-15T10:57:40;24.90;99.90
34877;DHT22;21086;44.780;17.194;2023-01-15T11:00:10;25.20;99.90
34877;DHT22;21086;44.780;17.194;2023-01-15T11:03:02;25.50;99.90
34877;DHT22;21086;44.780;17.194;2023-01-15T11:05:34;26.10;99.90
34877;DHT22;21086;44.780;17.194;2023-01-15T11:08:04;26.70;99.90
34877;DHT22;21086;44.780;17.194;2023-01-15T11:10:52;27.30;99.90
34877;DHT22;21086;44.780;17.194;2023-01-15T11:13:24;27.70;99.90
34877;DHT22;21086;44.780;17.194;2023-01-15T11:16:14;27.80;99.90
34877;DHT22;21086;44.780;17.194;2023-01-15T11:19:05;28.10;99.90
34877;DHT22;21086;44.780;17.194;2023-01-15T11:21:52;28.40;99.90
34877;DHT22;21086;44.780;17.194;2023-01-15T11:24:19;28.50;99.90
34877;DHT22;21086;44.780;17.194;2023-01-15T11:26:49;28.50;99.90
34877;DHT22;21086;44.780;17.194;2023-01-15T11:29:35;28.90;99.90
34877;DHT22;21086;44.780;17.194;2023-01-15T11:32:03;29.40;99.90
34877;DHT22;21086;44.780;17.194;2023-01-15T11:34:30;29.50;99.90
34877;DHT22;21086;44.780;17.194;2023-01-15T11:37:01;30.00;99.90
34877;DHT22;21086;44.780;17.194;2023-01-15T11:39:29;30.30;99.90
34877;DHT22;21086;44.780;17.194;2023-01-15T11:41:59;30.40;99.90
34877;DHT22;21086;44.780;17.194;2023-01-15T11:44:52;30.30;99.90
34877;DHT22;21086;44.780;17.194;2023-01-15T11:47:38;30.00;99.90
34877;DHT22;21086;44.780;17.194;2023-01-15T11:50:24;30.30;99.90
34877;DHT22;21086;44.780;17.194;2023-01-15T11:53:15;30.00;99.90
34877;DHT22;21086;44.780;17.194;2023-01-15T11:56:00;30.20;99.90
34877;DHT22;21086;44.780;17.194;2023-01-15T11:58:32;30.10;99.90
34877;DHT22;21086;44.780;17.194;2023-01-15T12:01:00;27.70;99.90
34877;DHT22;21086;44.780;17.194;2023-01-15T12:03:29;28.40;99.90
34877;DHT22;21086;44.780;17.194;2023-01-15T12:06:00;28.20;99.90
34877;DHT22;21086;44.780;17.194;2023-01-15T12:28:18;25.60;99.90
34877;DHT22;21086;44.780;17.194;2023-01-15T12:34:18;25.00;99.90
34877;DHT22;21086;44.780;17.194;2023-01-15T12:36:55;24.30;99.90
34877;DHT22;21086;44.780;17.194;2023-01-15T12:39:43;23.30;99.90
34877;DHT22;21086;44.780;17.194;2023-01-15T12:42:16;23.10;99.90
34877;DHT22;21086;44.780;17.194;2023-01-15T12:45:09;23.00;99.90
34877;DHT22;21086;44.780;17.194;2023-01-15T12:50:38;23.00;99.90
34877;DHT22;21086;44.780;17.194;2023-01-15T12:53:40;22.50;99.90
34877;DHT22;21086;44.780;17.194;2023-01-15T13:04:33;22.00;99.90
34877;DHT22;21086;44.780;17.194;2023-01-15T13:10:04;21.40;99.90
34877;DHT22;21086;44.780;17.194;2023-01-15T13:12:34;21.10;99.90
34877;DHT22;21086;44.780;17.194;2023-01-15T13:15:02;21.00;99.90
34877;DHT22;21086;44.780;17.194;2023-01-15T13:20:12;20.80;99.90
34877;DHT22;21086;44.780;17.194;2023-01-15T13:25:57;21.70;99.90
34877;DHT22;21086;44.780;17.194;2023-01-15T13:28:47;21.60;99.90
34877;DHT22;21086;44.780;17.194;2023-01-15T13:33:53;21.80;99.90
34877;DHT22;21086;44.780;17.194;2023-01-15T13:36:29;22.00;99.90
34877;DHT22;21086;44.780;17.194;2023-01-15T13:39:01;21.80;99.90
34877;DHT22;21086;44.780;17.194;2023-01-15T13:41:31;21.20;99.90
34877;DHT22;21086;44.780;17.194;2023-01-15T13:44:22;20.30;99.90
34877;DHT22;21086;44.780;17.194;2023-01-15T13:47:10;19.10;99.90
34877;DHT22;21086;44.780;17.194;2023-01-15T13:49:44;18.20;99.90
34877;DHT22;21086;44.780;17.194;2023-01-15T13:52:27;17.50;99.90
34877;DHT22;21086;44.780;17.194;2023-01-15T14:21:13;14.90;99.90
34877;DHT22;21086;44.780;17.194;2023-01-15T14:26:49;14.60;99.90
34877;DHT22;21086;44.780;17.194;2023-01-15T14:32:30;14.40;99.90
34877;DHT22;21086;44.780;17.194;2023-01-15T14:35:01;14.30;99.90
34877;DHT22;21086;44.780;17.194;2023-01-15T14:37:46;14.10;99.90
34877;DHT22;21086;44.780;17.194;2023-01-15T14:40:34;14.10;99.90
34877;DHT22;21086;44.780;17.194;2023-01-15T14:43:08;14.00;99.90
34877;DHT22;21086;44.780;17.194;2023-01-15T14:45:44;14.00;99.90
34877;DHT22;21086;44.780;17.194;2023-01-15T14:54:17;13.80;99.90
34877;DHT22;21086;44.780;17.194;2023-01-15T14:56:51;13.80;99.90
34877;DHT22;21086;44.780;17.194;2023-01-15T15:20:59;13.50;99.90
34877;DHT22;21086;44.780;17.194;2023-01-15T15:26:26;13.40;99.90
34877;DHT22;21086;44.780;17.194;2023-01-15T15:29:15;13.40;99.90
34877;DHT22;21086;44.780;17.194;2023-01-15T15:31:51;13.30;99.90
34877;DHT22;21086;44.780;17.194;2023-01-15T15:37:23;13.10;99.90
34877;DHT22;21086;44.780;17.194;2023-01-15T15:40:12;13.10;99.90
34877;DHT22;21086;44.780;17.194;2023-01-15T15:45:51;13.10;99.90
34877;DHT22;21086;44.780;17.194;2023-01-15T15:48:37;13.10;99.90
34877;DHT22;21086;44.780;17.194;2023-01-15T15:54:24;13.10;99.90
34877;DHT22;21086;44.780;17.194;2023-01-15T15:57:12;13.10;99.90
34877;DHT22;21086;44.780;17.194;2023-01-15T16:12:59;13.10;99.90
34877;DHT22;21086;44.780;17.194;2023-01-15T16:15:28;13.10;99.90
34877;DHT22;21086;44.780;17.194;2023-01-15T16:17:57;13.00;99.90
34877;DHT22;21086;44.780;17.194;2023-01-15T16:20:25;12.90;99.90
34877;DHT22;21086;44.780;17.194;2023-01-15T16:22:54;13.00;99.90
34877;DHT22;21086;44.780;17.194;2023-01-15T16:25:36;12.90;99.90
34877;DHT22;21086;44.780;17.194;2023-01-15T16:28:04;12.90;99.90
34877;DHT22;21086;44.780;17.194;2023-01-15T16:30:32;12.90;99.90
34877;DHT22;21086;44.780;17.194;2023-01-15T16:33:03;12.90;99.90
34877;DHT22;21086;44.780;17.194;2023-01-15T16:35:35;12.80;99.90
34877;DHT22;21086;44.780;17.194;2023-01-15T16:38:03;12.80;99.90
34877;DHT22;21086;44.780;17.194;2023-01-15T16:40:38;12.80;99.90
34877;DHT22;21086;44.780;17.194;2023-01-15T16:43:09;12.80;99.90
34877;DHT22;21086;44.780;17.194;2023-01-15T16:48:34;12.80;99.90
34877;DHT22;21086;44.780;17.194;2023-01-15T16:51:34;12.90;99.90
34877;DHT22;21086;44.780;17.194;2023-01-15T16:54:04;12.90;99.90
34877;DHT22;21086;44.780;17.194;2023-01-15T16:59:04;13.00;99.90
34877;DHT22;21086;44.780;17.194;2023-01-15T17:01:46;12.90;99.90
34877;DHT22;21086;44.780;17.194;2023-01-15T17:04:24;12.90;99.90
34877;DHT22;21086;44.780;17.194;2023-01-15T17:09:31;12.80;99.90
34877;DHT22;21086;44.780;17.194;2023-01-15T17:12:03;12.90;99.90
34877;DHT22;21086;44.780;17.194;2023-01-15T17:14:31;12.80;99.90
34877;DHT22;21086;44.780;17.194;2023-01-15T17:17:24;13.00;99.90
34877;DHT22;21086;44.780;17.194;2023-01-15T17:19:54;12.90;99.90
34877;DHT22;21086;44.780;17.194;2023-01-15T17:22:29;12.90;99.90
34877;DHT22;21086;44.780;17.194;2023-01-15T17:24:59;12.90;99.90
34877;DHT22;21086;44.780;17.194;2023-01-15T17:27:28;12.80;99.90
34877;DHT22;21086;44.780;17.194;2023-01-15T17:29:55;12.80;99.90
34877;DHT22;21086;44.780;17.194;2023-01-15T17:32:30;12.80;99.90
34877;DHT22;21086;44.780;17.194;2023-01-15T17:34:57;12.70;99.90
34877;DHT22;21086;44.780;17.194;2023-01-15T17:37:24;12.70;99.90
34877;DHT22;21086;44.780;17.194;2023-01-15T17:39:51;12.70;99.90
34877;DHT22;21086;44.780;17.194;2023-01-15T17:42:18;12.70;99.90
34877;DHT22;21086;44.780;17.194;2023-01-15T17:44:46;12.70;99.90
34877;DHT22;21086;44.780;17.194;2023-01-15T17:47:13;12.80;99.90
34877;DHT22;21086;44.780;17.194;2023-01-15T17:49:40;12.70;99.90
34877;DHT22;21086;44.780;17.194;2023-01-15T17:52:14;12.70;99.90
34877;DHT22;21086;44.780;17.194;2023-01-15T17:54:42;12.70;99.90
34877;DHT22;21086;44.780;17.194;2023-01-15T17:57:27;12.60;99.90
34877;DHT22;21086;44.780;17.194;2023-01-15T18:00:13;12.60;99.90
34877;DHT22;21086;44.780;17.194;2023-01-15T18:02:59;12.50;99.90
34877;DHT22;21086;44.780;17.194;2023-01-15T18:05:47;12.50;99.90
34877;DHT22;21086;44.780;17.194;2023-01-15T18:08:16;12.40;99.90
34877;DHT22;21086;44.780;17.194;2023-01-15T18:10:44;12.40;99.90
34877;DHT22;21086;44.780;17.194;2023-01-15T18:13:11;12.40;99.90
34877;DHT22;21086;44.780;17.194;2023-01-15T18:15:39;12.40;99.90
34877;DHT22;21086;44.780;17.194;2023-01-15T18:18:06;12.50;99.90
34877;DHT22;21086;44.780;17.194;2023-01-15T18:20:33;12.50;99.90
34877;DHT22;21086;44.780;17.194;2023-01-15T18:23:00;12.50;99.90
34877;DHT22;21086;44.780;17.194;2023-01-15T18:25:27;12.40;99.90
34877;DHT22;21086;44.780;17.194;2023-01-15T18:27:54;12.40;99.90
34877;DHT22;21086;44.780;17.194;2023-01-15T18:30:21;12.40;99.90
34877;DHT22;21086;44.780;17.194;2023-01-15T18:32:48;12.30;99.90
34877;DHT22;21086;44.780;17.194;2023-01-15T18:35:14;12.30;99.90
34877;DHT22;21086;44.780;17.194;2023-01-15T18:37:43;12.30;99.90
34877;DHT22;21086;44.780;17.194;2023-01-15T18:40:10;12.30;99.90
34877;DHT22;21086;44.780;17.194;2023-01-15T18:42:38;12.30;99.90
34877;DHT22;21086;44.780;17.194;2023-01-15T18:45:23;12.30;99.90
34877;DHT22;21086;44.780;17.194;2023-01-15T18:48:09;12.30;99.90
34877;DHT22;21086;44.780;17.194;2023-01-15T18:50:36;12.20;99.90
34877;DHT22;21086;44.780;17.194;2023-01-15T18:53:03;12.20;99.90
34877;DHT22;21086;44.780;17.194;2023-01-15T18:55:30;12.20;99.90
34877;DHT22;21086;44.780;17.194;2023-01-15T18:57:57;12.30;99.90
34877;DHT22;21086;44.780;17.194;2023-01-15T19:00:24;12.40;99.90
34877;DHT22;21086;44.780;17.194;2023-01-15T19:02:51;12.30;99.90
34877;DHT22;21086;44.780;17.194;2023-01-15T19:05:18;12.20;99.90
34877;DHT22;21086;44.780;17.194;2023-01-15T19:07:46;12.20;99.90
34877;DHT22;21086;44.780;17.194;2023-01-15T19:10:14;12.10;99.90